Time;durP1;ratioP1;P1;durP2;ratioP2;P2;SDS_P1;SDS_P2;PMS_P1;PMS_P2;Temp;Humidity;BMP_temperature;BMP_pressure;BME280_temperature;BME280_humidity;BME280_pressure;Samples;Min_cycle;Max_cycle;Signal;HPM_P1;HPM_P2
2024/01/08 18:01:05;;;;;;;;;3.50;3.25;;;;;;;;5123763;27;1371100;-79
2024/01/08 18:03:31;;;;;;;;;2.50;2.50;;;;;;;;5129240;27;8837;-77
2024/01/08 18:05:58;;;;;;;;;4.75;1.75;;;;;;;;5038340;27;11007;-79
2024/01/08 18:08:29;;;;;;;;;2.75;2.75;;;;;;;;5115721;27;17085;-78
2024/01/08 18:10:54;;;;;;;;;5.00;3.00;;;;;;;;5098035;27;11413;-79
2024/01/08 18:13:19;;;;;;;;;6.00;2.50;;;;;;;;5125774;27;11585;-75
2024/01/08 18:15:45;;;;;;;;;9.75;4.00;;;;;;;;5129124;27;8788;-77
2024/01/08 18:18:10;;;;;;;;;5.00;4.50;;;;;;;;5127558;27;8798;-81
2024/01/08 18:20:35;;;;;;;;;4.00;4.00;;;;;;;;5127475;27;8942;-79
2024/01/08 18:23:01;;;;;;;;;5.25;4.00;;;;;;;;5127854;27;8779;-82
2024/01/08 18:25:26;;;;;;;;;4.00;4.00;;;;;;;;5125982;27;8888;-79
2024/01/08 18:27:51;;;;;;;;;9.50;7.50;;;;;;;;5128252;27;9583;-79
2024/01/08 18:30:18;;;;;;;;;3.00;3.00;;;;;;;;5129748;27;8783;-78
2024/01/08 18:32:43;;;;;;;;;6.00;4.00;;;;;;;;5128396;27;8788;-78
2024/01/08 18:35:09;;;;;;;;;7.00;4.50;;;;;;;;5126344;27;11360;-77
2024/01/08 18:37:34;;;;;;;;;4.50;4.50;;;;;;;;5127293;27;8786;-78
2024/01/08 18:39:59;;;;;;;;;1.75;1.75;;;;;;;;5127429;27;8866;-78
2024/01/08 18:42:25;;;;;;;;;5.25;2.50;;;;;;;;5109274;27;8799;-79
2024/01/08 18:44:50;;;;;;;;;6.00;3.00;;;;;;;;5126036;27;8768;-76
2024/01/08 18:47:16;;;;;;;;;2.00;2.00;;;;;;;;5127739;27;8883;-78
2024/01/08 18:49:41;;;;;;;;;6.00;5.00;;;;;;;;5128225;27;8772;-78
2024/01/08 18:52:06;;;;;;;;;5.75;3.00;;;;;;;;5127852;27;11325;-84
2024/01/08 18:54:32;;;;;;;;;3.00;3.00;;;;;;;;5085744;27;11414;-78
2024/01/08 18:56:57;;;;;;;;;4.75;2.00;;;;;;;;5124379;27;10008;-79
2024/01/08 18:59:22;;;;;;;;;2.00;2.00;;;;;;;;5121145;27;8829;-75
2024/01/08 19:01:47;;;;;;;;;2.50;2.00;;;;;;;;5105094;28;8851;-75
2024/01/08 19:04:13;;;;;;;;;2.00;2.00;;;;;;;;5103795;28;8842;-75
2024/01/08 19:06:38;;;;;;;;;2.00;2.00;;;;;;;;5090230;28;8821;-80
2024/01/08 19:09:05;;;;;;;;;3.00;3.00;;;;;;;;5084225;28;8811;-77
2024/01/08 19:11:30;;;;;;;;;5.25;4.50;;;;;;;;5079383;28;8800;-82
2024/01/08 19:13:56;;;;;;;;;2.25;2.25;;;;;;;;5089962;28;11413;-80
2024/01/08 19:16:21;;;;;;;;;2.00;1.00;;;;;;;;5090887;28;8799;-83
2024/01/08 19:18:47;;;;;;;;;2.50;2.25;;;;;;;;5093965;28;8823;-80
2024/01/08 19:21:13;;;;;;;;;2.00;2.00;;;;;;;;5094263;28;8805;-89
2024/01/08 19:23:38;;;;;;;;;2.50;1.75;;;;;;;;5110990;28;11443;-82
2024/01/08 19:26:04;;;;;;;;;2.25;1.50;;;;;;;;5111594;28;8801;-85
2024/01/08 19:28:32;;;;;;;;;1.50;1.50;;;;;;;;5094956;28;8812;-76
2024/01/08 19:30:58;;;;;;;;;2.00;2.00;;;;;;;;5095527;28;8807;-78
2024/01/08 19:33:25;;;;;;;;;1.25;1.25;;;;;;;;5089550;28;11446;-76
2024/01/08 19:35:51;;;;;;;;;1.75;1.75;;;;;;;;5092993;28;8873;-77
2024/01/08 19:38:16;;;;;;;;;2.00;2.00;;;;;;;;5092572;28;12124;-82
2024/01/08 19:40:41;;;;;;;;;3.00;3.00;;;;;;;;5093011;28;8799;-78
2024/01/08 19:43:06;;;;;;;;;3.00;2.25;;;;;;;;5092011;28;8780;-75
2024/01/08 19:45:32;;;;;;;;;5.75;2.00;;;;;;;;5088934;28;8838;-82
2024/01/08 19:47:57;;;;;;;;;2.50;2.50;;;;;;;;5090870;28;8823;-78
2024/01/08 19:50:23;;;;;;;;;3.00;3.00;;;;;;;;5092792;28;8788;-78
2024/01/08 19:52:48;;;;;;;;;38.25;37.25;;;;;;;;5092232;28;8824;-75
2024/01/08 19:55:14;;;;;;;;;19.50;14.50;;;;;;;;5091902;28;11523;-73
2024/01/08 19:57:39;;;;;;;;;1.50;1.50;;;;;;;;5091564;28;8796;-73
2024/01/08 20:00:07;;;;;;;;;3.25;2.00;;;;;;;;5091716;28;8934;-74
2024/01/08 20:02:33;;;;;;;;;2.50;2.50;;;;;;;;5093491;28;8808;-74
2024/01/08 20:04:58;;;;;;;;;2.00;2.00;;;;;;;;5089995;28;11400;-78
2024/01/08 20:07:23;;;;;;;;;4.00;2.00;;;;;;;;5091355;28;8783;-75
2024/01/08 20:09:48;;;;;;;;;4.00;2.75;;;;;;;;5091294;28;8808;-74
2024/01/08 20:12:14;;;;;;;;;2.25;2.25;;;;;;;;5091577;28;9390;-75
2024/01/08 20:14:40;;;;;;;;;4.50;1.75;;;;;;;;5089528;28;8772;-76
2024/01/08 20:17:05;;;;;;;;;2.75;1.50;;;;;;;;5092826;28;8783;-74
2024/01/08 20:19:34;;;;;;;;;2.00;1.00;;;;;;;;5090454;28;8835;-78
2024/01/08 20:22:00;;;;;;;;;3.00;3.00;;;;;;;;5090497;28;8800;-78
2024/01/08 20:24:25;;;;;;;;;3.00;1.00;;;;;;;;5090565;28;11717;-81
2024/01/08 20:26:50;;;;;;;;;3.00;2.00;;;;;;;;5090961;28;8787;-77
2024/01/08 20:29:16;;;;;;;;;1.25;1.25;;;;;;;;5091546;28;8843;-78
2024/01/08 20:31:41;;;;;;;;;2.75;2.50;;;;;;;;5092971;28;8865;-77
2024/01/08 20:34:07;;;;;;;;;4.00;4.00;;;;;;;;5089474;28;9514;-80
2024/01/08 20:36:32;;;;;;;;;1.00;1.00;;;;;;;;5088488;28;8823;-81
2024/01/08 20:38:57;;;;;;;;;2.00;2.00;;;;;;;;5091520;28;8808;-76
2024/01/08 20:41:24;;;;;;;;;3.00;2.00;;;;;;;;5091939;28;8788;-81
2024/01/08 20:43:49;;;;;;;;;3.00;3.00;;;;;;;;5089754;28;8795;-84
2024/01/08 20:46:14;;;;;;;;;1.75;1.75;;;;;;;;5091763;28;11499;-74
2024/01/08 20:48:39;;;;;;;;;2.00;1.00;;;;;;;;5091373;28;8803;-78
2024/01/08 20:51:05;;;;;;;;;3.00;3.00;;;;;;;;5090965;28;9529;-77
2024/01/08 20:53:30;;;;;;;;;9.00;7.00;;;;;;;;5089518;28;8841;-75
2024/01/08 20:55:55;;;;;;;;;2.25;2.25;;;;;;;;5093333;28;8772;-73
2024/01/08 20:58:21;;;;;;;;;6.00;3.00;;;;;;;;5090647;28;8776;-77
2024/01/08 21:00:46;;;;;;;;;2.00;2.00;;;;;;;;5090623;28;8836;-77
2024/01/08 21:03:12;;;;;;;;;3.00;2.00;;;;;;;;5092230;28;8776;-88
2024/01/08 21:05:37;;;;;;;;;4.75;3.00;;;;;;;;5090328;28;9561;-78
2024/01/08 21:08:03;;;;;;;;;5.00;5.00;;;;;;;;5086522;28;8899;-78
2024/01/08 21:10:28;;;;;;;;;3.00;3.00;;;;;;;;5071959;28;9457;-77
2024/01/08 21:12:53;;;;;;;;;1.00;1.00;;;;;;;;5070955;28;8782;-79
2024/01/08 21:15:19;;;;;;;;;2.00;2.00;;;;;;;;5069970;28;8807;-74
2024/01/08 21:17:45;;;;;;;;;6.00;5.00;;;;;;;;5079572;28;8787;-77
2024/01/08 21:20:10;;;;;;;;;4.00;4.00;;;;;;;;5090658;28;11576;-72
2024/01/08 21:22:36;;;;;;;;;2.75;2.75;;;;;;;;5090483;28;8776;-72
2024/01/08 21:25:01;;;;;;;;;5.50;4.00;;;;;;;;5089250;28;8820;-72
2024/01/08 21:27:27;;;;;;;;;3.50;3.00;;;;;;;;5093299;28;8784;-74
2024/01/08 21:29:52;;;;;;;;;2.00;2.00;;;;;;;;5087328;28;8798;-73
2024/01/08 21:32:17;;;;;;;;;4.00;2.25;;;;;;;;5090641;28;9543;-73
2024/01/08 21:51:57;;;;;;;;;2.00;2.00;;;;;;;;5095898;27;14215;-78
2024/01/08 21:54:23;;;;;;;;;0.00;0.00;;;;;;;;5067845;28;11437;-77
2024/01/08 21:56:48;;;;;;;;;2.00;1.25;;;;;;;;5070148;28;8910;-76
2024/01/08 21:59:13;;;;;;;;;2.00;1.00;;;;;;;;5066530;28;8789;-78
2024/01/08 22:01:39;;;;;;;;;1.00;1.00;;;;;;;;5069119;28;8913;-78
2024/01/08 22:04:04;;;;;;;;;1.00;0.25;;;;;;;;5067850;28;8896;-78
2024/01/08 22:06:29;;;;;;;;;1.75;1.75;;;;;;;;5067714;28;8789;-78
2024/01/08 22:08:54;;;;;;;;;3.00;3.00;;;;;;;;5067775;28;8793;-78
2024/01/08 22:11:20;;;;;;;;;1.50;1.50;;;;;;;;5079212;28;9661;-78
2024/01/08 22:13:45;;;;;;;;;1.75;1.00;;;;;;;;5067761;28;8797;-78
2024/01/08 22:16:13;;;;;;;;;1.00;1.00;;;;;;;;5067449;28;8773;-78
2024/01/08 22:18:40;;;;;;;;;1.50;1.00;;;;;;;;5069016;28;8785;-78
2024/01/08 22:21:05;;;;;;;;;1.75;1.75;;;;;;;;5088933;28;11401;-77
2024/01/08 22:23:30;;;;;;;;;1.00;1.00;;;;;;;;5087574;28;12069;-78
2024/01/08 22:25:56;;;;;;;;;3.50;3.50;;;;;;;;5087455;28;8814;-80
2024/01/08 22:28:21;;;;;;;;;3.25;2.00;;;;;;;;5089628;28;8787;-78
2024/01/08 22:30:46;;;;;;;;;2.00;2.00;;;;;;;;5082449;28;8802;-79
2024/01/08 22:33:11;;;;;;;;;4.75;1.25;;;;;;;;5067282;28;8801;-78
2024/01/08 22:35:37;;;;;;;;;4.25;1.00;;;;;;;;5067100;28;8912;-77
2024/01/08 22:38:02;;;;;;;;;1.75;1.75;;;;;;;;5065442;28;8785;-78
2024/01/08 22:40:28;;;;;;;;;1.00;1.00;;;;;;;;5065185;28;8801;-78
2024/01/08 22:42:53;;;;;;;;;1.00;1.00;;;;;;;;5066977;28;8872;-79
2024/01/08 22:45:18;;;;;;;;;2.00;2.00;;;;;;;;5066998;28;8810;-79
2024/01/08 22:47:44;;;;;;;;;1.00;1.00;;;;;;;;5067092;28;9492;-79
2024/01/08 22:50:09;;;;;;;;;1.75;1.75;;;;;;;;5080954;28;8830;-78
2024/01/08 22:52:35;;;;;;;;;2.00;1.00;;;;;;;;5087099;28;8778;-78
2024/01/08 22:55:00;;;;;;;;;4.75;1.75;;;;;;;;5085756;28;8810;-78
2024/01/08 22:57:25;;;;;;;;;2.00;0.75;;;;;;;;5089310;28;8840;-78
2024/01/08 22:59:50;;;;;;;;;2.00;2.00;;;;;;;;5085633;28;8899;-78
2024/01/08 23:02:16;;;;;;;;;5.50;1.25;;;;;;;;5078011;28;8802;-78
2024/01/08 23:04:42;;;;;;;;;1.00;1.00;;;;;;;;5073347;28;8813;-78
2024/01/08 23:07:07;;;;;;;;;1.00;1.00;;;;;;;;5073352;28;8779;-88
2024/01/08 23:09:33;;;;;;;;;4.50;1.00;;;;;;;;5073309;28;11442;-85
2024/01/08 23:11:58;;;;;;;;;2.50;1.00;;;;;;;;5073430;28;8810;-86
2024/01/08 23:14:23;;;;;;;;;3.25;1.25;;;;;;;;5073184;28;8791;-85
2024/01/08 23:16:50;;;;;;;;;2.00;1.50;;;;;;;;5073338;28;8829;-84
2024/01/08 23:19:15;;;;;;;;;2.00;2.00;;;;;;;;5072927;28;8913;-84
2024/01/08 23:21:40;;;;;;;;;2.00;2.00;;;;;;;;5072784;28;11673;-83
2024/01/08 23:24:07;;;;;;;;;1.00;1.00;;;;;;;;5073015;28;8783;-86
2024/01/08 23:26:33;;;;;;;;;0.00;0.00;;;;;;;;5073296;28;8807;-84
2024/01/08 23:28:58;;;;;;;;;2.00;2.00;;;;;;;;5075078;28;11426;-90
2024/01/08 23:31:23;;;;;;;;;2.00;0.75;;;;;;;;5073251;28;8819;-88
2024/01/08 23:33:48;;;;;;;;;1.50;1.00;;;;;;;;5073518;28;8798;-87
2024/01/08 23:36:13;;;;;;;;;3.50;2.00;;;;;;;;5073054;28;8801;-89
2024/01/08 23:38:39;;;;;;;;;4.00;1.25;;;;;;;;5073490;28;8791;-89
2024/01/08 23:41:04;;;;;;;;;2.50;2.50;;;;;;;;5072170;28;8903;-89
2024/01/08 23:43:29;;;;;;;;;1.50;1.50;;;;;;;;5073671;28;8790;-88
2024/01/08 23:45:55;;;;;;;;;2.00;2.00;;;;;;;;5072999;28;8782;-87
2024/01/08 23:48:20;;;;;;;;;3.00;2.00;;;;;;;;5073044;28;8782;-86
